Latest Weather Observations for Young

IDN60801

Issued at 11:08 am EDT Thursday 11 February 2016 (issued every 30 minutes, with the page automatically refreshed every 10 minutes)

About weather observations | Map of weather stations | Latest weather observations for NSW | Other Formats
Station Details ID: 073138 Name: YOUNG AIRPORT Lat: -34.25 Lon: 148.25 Height: 379.6 m
Data from the previous 72 hours. | See also: Recent months at Young
Date/Time
EDT
Temp
°C
App
Temp
°C
Dew
Point
Rel
Hum
%
Delta-T
°C
Wind Press
QNH
hPa
Press
MSL
hPa
Rain
since 9 am
mm
Dir
 
Spd
km/h
Gust
km/h
Spd
kts
Gust
kts
11/11:00am 28.7 28.6 13.8 40 9.0 ENE 7 13 4 7 1013.9 1012.1 0.0
11/10:30am 28.0 29.0 14.3 43 8.4 NNE 2 7 1 4 1014.0 1012.2 0.0
11/10:00am 26.5 26.8 14.9 49 7.1 E 7 13 4 7 1014.0 1012.2 0.0
11/09:30am 25.3 25.7 16.4 57 5.6 ESE 9 13 5 7 1014.3 1012.5 0.0
11/09:00am 23.3 23.4 15.6 62 4.7 ESE 9 13 5 7 1014.3 1012.5 0.0
11/08:30am 21.5 21.6 16.5 73 3.1 S 11 15 6 8 1014.4 1012.6 0.0
11/08:00am 19.5 19.9 16.3 82 1.9 S 9 13 5 7 1014.0 1012.2 0.0
11/07:30am 17.5 17.9 15.3 87 1.3 SSW 7 9 4 5 1013.6 1011.8 0.0
11/07:00am 15.4 15.3 13.9 91 0.9 SSW 7 9 4 5 1013.2 1011.4 0.0
11/06:30am 14.8 14.3 12.8 88 1.1 SSW 7 9 4 5 1012.8 1011.0 0.0
11/06:00am 14.6 14.0 12.3 86 1.3 S 7 9 4 5 1012.6 1010.8 0.0
11/05:30am 14.4 13.6 11.6 83 1.5 S 7 9 4 5 1012.3 1010.4 0.0
11/05:00am 14.5 13.6 11.5 82 1.6 S 7 9 4 5 1012.2 1010.3 0.0
11/04:30am 14.0 12.6 10.8 81 1.7 S 9 11 5 6 1012.1 1010.2 0.0
11/04:00am 14.1 13.2 11.3 83 1.5 SW 7 9 4 5 1012.1 1010.2 0.0
11/03:30am 13.9 12.4 10.7 81 1.7 S 9 11 5 6 1011.8 1010.0 0.0
11/03:00am 14.1 13.3 11.1 82 1.6 SSW 6 9 3 5 1011.8 1010.0 0.0
11/02:30am 14.1 12.7 10.9 81 1.7 SW 9 11 5 6 1012.1 1010.2 0.0
11/02:00am 14.0 12.9 10.6 80 1.8 S 7 9 4 5 1012.2 1010.3 0.0
11/01:30am 14.0 12.8 10.4 79 1.9 S 7 9 4 5 1012.5 1010.6 0.0
11/01:00am 14.9 13.6 10.1 73 2.6 SSW 7 9 4 5 1012.7 1010.9 0.0
11/12:30am 15.8 14.5 9.9 68 3.1 SSW 7 7 4 4 1012.7 1010.9 0.0
11/12:00am 16.1 14.8 10.0 67 3.3 S 7 9 4 5 1012.8 1011.0 0.0
 
Date/Time
EDT
Temp
°C
App
Temp
°C
Dew
Point
Rel
Hum
%
Delta-T
°C
Wind Press
QNH
hPa
Press
MSL
hPa
Rain
since 9 am
mm
Dir
 
Spd
km/h
Gust
km/h
Spd
kts
Gust
kts
10/11:30pm 16.8 15.7 10.6 67 3.4 SSW 7 9 4 5 1012.7 1010.9 0.0
10/11:00pm 17.3 16.4 10.7 65 3.6 SSW 6 7 3 4 1012.7 1010.9 0.0
10/10:30pm 18.8 17.5 10.1 57 4.7 S 7 9 4 5 1012.7 1010.9 0.0
10/10:00pm 18.8 18.2 10.4 58 4.6 SSW 4 7 2 4 1012.7 1010.9 0.0
10/09:30pm 20.1 18.8 9.9 52 5.6 SW 7 9 4 5 1012.4 1010.5 0.0
10/09:00pm 21.6 21.2 9.8 47 6.5 SSW 2 7 1 4 1012.2 1010.3 0.0
10/08:30pm 24.2 23.1 8.6 37 8.5 WSW 4 7 2 4 1012.0 1010.1 0.0
10/08:00pm 28.6 26.1 6.7 25 11.8 SSW 9 11 5 6 1011.7 1009.9 0.0
10/07:30pm 30.5 27.6 6.4 22 13.1 SSW 11 15 6 8 1011.2 1009.4 0.0
10/07:00pm 32.7 30.4 7.5 21 14.1 SW 9 13 5 7 1010.9 1009.1 0.0
10/06:30pm 33.9 31.7 7.8 20 14.7 W 9 15 5 8 1010.7 1008.9 0.0
10/06:00pm 33.9 31.1 7.0 19 15.0 W 11 13 6 7 1010.7 1008.9 0.0
10/05:30pm 33.5 31.2 7.5 20 14.6 W 9 17 5 9 1010.8 1009.0 0.0
10/05:00pm 33.4 31.3 8.1 21 14.3 WSW 9 20 5 11 1011.0 1009.2 0.0
10/04:30pm 33.4 29.6 7.4 20 14.6 WSW 17 26 9 14 1011.2 1009.4 0.0
10/04:00pm 33.2 31.0 7.9 21 14.3 W 9 15 5 8 1011.5 1009.7 0.0
10/03:30pm 33.1 31.4 9.8 24 13.5 WSW 9 24 5 13 1012.1 1010.2 0.0
10/03:00pm 32.5 30.1 9.9 25 13.1 WSW 13 24 7 13 1012.5 1010.6 0.0
10/02:30pm 31.9 29.4 8.2 23 13.4 WNW 11 24 6 13 1012.9 1011.1 0.0
10/02:00pm 31.4 29.5 11.7 29 11.7 NW 13 28 7 15 1013.4 1011.6 0.0
10/01:30pm 31.3 30.0 12.6 31 11.3 W 11 20 6 11 1013.9 1012.1 0.0
10/01:00pm 30.1 28.6 13.0 35 10.3 WNW 13 20 7 11 1014.3 1012.5 0.0
10/12:30pm 29.7 28.2 13.0 35 10.0 WNW 13 24 7 13 1014.9 1013.0 0.0
10/12:00pm 28.8 29.1 15.0 43 8.5 WNW 7 15 4 8 1015.3 1013.5 0.0
10/11:30am 28.6 28.4 16.8 48 7.5 NW 13 17 7 9 1015.7 1013.9 0.0
10/11:00am 27.0 25.9 14.4 46 7.7 N 13 19 7 10 1016.0 1014.2 0.0
10/10:30am 25.8 24.9 14.9 51 6.7 N 13 17 7 9 1016.1 1014.3 0.0
10/10:00am 24.8 23.2 15.1 54 5.9 N 17 20 9 11 1016.4 1014.6 0.0
10/09:30am 23.7 22.9 15.2 59 5.2 N 13 19 7 10 1016.6 1014.8 0.0
10/09:00am 22.4 21.6 15.0 63 4.5 NE 13 17 7 9 1016.6 1014.8 0.0
10/08:30am 21.0 20.0 14.6 67 3.8 NNE 13 19 7 10 1016.6 1014.8 0.0
10/08:00am 19.8 17.8 15.0 74 2.9 NNE 19 24 10 13 1016.5 1014.7 0.0
10/07:30am 18.5 18.5 15.2 81 2.0 N 9 13 5 7 1016.4 1014.6 0.0
10/07:00am 16.3 16.3 14.1 87 1.3 N 7 9 4 5 1016.4 1014.6 0.0
10/06:30am 15.1 16.1 13.1 88 1.1 CALM 0 0 0 0 1016.1 1014.3 0.0
10/06:00am 15.6 16.7 13.4 87 1.3 CALM 0 0 0 0 1016.0 1014.2 0.0
10/05:30am 16.1 17.0 13.9 87 1.3 NW 2 6 1 3 1015.6 1013.8 0.0
10/05:00am 16.2 17.4 13.9 86 1.3 CALM 0 0 0 0 1015.5 1013.7 0.0
10/04:30am 16.3 17.6 14.1 87 1.3 CALM 0 0 0 0 1015.4 1013.6 0.0
10/04:00am 15.6 15.5 13.4 87 1.3 S 6 7 3 4 1015.4 1013.6 0.0
10/03:30am 16.0 16.7 13.5 85 1.4 NW 2 7 1 4 1015.4 1013.6 0.0
10/03:00am 16.5 16.3 13.6 83 1.7 SW 7 11 4 6 1015.3 1013.5 0.0
10/02:30am 16.2 15.6 13.5 84 1.5 SW 9 11 5 6 1015.5 1013.7 0.0
10/02:00am 16.2 16.0 13.1 82 1.8 SSW 6 7 3 4 1015.8 1014.0 0.0
10/01:30am 16.4 16.7 13.3 82 1.8 SSW 4 7 2 4 1015.9 1014.1 0.0
10/01:00am 17.0 17.7 13.3 79 2.1 S 2 7 1 4 1016.1 1014.3 0.0
10/12:30am 17.3 18.4 13.4 78 2.2 CALM 0 0 0 0 1016.2 1014.4 0.0
10/12:00am 18.0 18.4 13.7 76 2.5 SW 4 7 2 4 1016.3 1014.5 0.0
 
Date/Time
EDT
Temp
°C
App
Temp
°C
Dew
Point
Rel
Hum
%
Delta-T
°C
Wind Press
QNH
hPa
Press
MSL
hPa
Rain
since 9 am
mm
Dir
 
Spd
km/h
Gust
km/h
Spd
kts
Gust
kts
09/11:30pm 18.2 18.5 13.3 73 2.8 SW 4 7 2 4 1016.4 1014.6 0.0
09/11:00pm 19.3 20.0 13.5 69 3.4 SW 2 7 1 4 1016.6 1014.8 0.0
09/10:30pm 20.5 20.3 13.5 64 4.1 SSW 7 11 4 6 1016.6 1014.8 0.0
09/10:00pm 20.9 20.7 13.6 63 4.3 SSW 7 9 4 5 1016.5 1014.7 0.0
09/09:30pm 20.8 20.8 14.2 66 3.9 SW 7 7 4 4 1016.4 1014.6 0.0
09/09:00pm 22.4 22.5 14.5 61 4.7 SW 7 9 4 5 1016.2 1014.4 0.0
09/08:30pm 24.7 24.5 13.6 50 6.6 SW 7 7 4 4 1016.0 1014.2 0.0
09/08:00pm 26.3 27.7 14.4 48 7.2 CALM 0 4 0 2 1016.0 1014.2 0.0
09/07:30pm 28.2 28.0 12.9 38 9.1 SSE 6 9 3 5 1015.7 1013.9 0.0
09/07:00pm 30.2 29.4 11.2 31 11.1 SE 6 9 3 5 1015.5 1013.7 0.0
09/06:30pm 31.0 30.4 10.4 28 12.0 WSW 4 7 2 4 1015.4 1013.6 0.0
09/06:00pm 31.9 33.0 13.6 32 11.2 CALM 0 0 0 0 1015.5 1013.7 0.0
09/05:30pm 30.1 28.9 11.6 32 10.9 SSW 9 9 5 5 1015.7 1013.9 0.0
09/05:00pm 31.0 28.9 9.8 27 12.2 SSE 11 17 6 9 1016.0 1014.2 0.0
09/04:30pm 32.0 31.2 11.2 28 12.3 SSE 6 13 3 7 1016.3 1014.5 0.0
09/04:00pm 31.8 30.7 10.5 27 12.4 S 7 11 4 6 1016.6 1014.8 0.0
09/03:30pm 31.4 30.7 13.2 33 11.1 NNW 9 13 5 7 1017.0 1015.2 0.0
09/03:00pm 30.5 29.3 12.9 34 10.6 ESE 11 19 6 10 1017.7 1015.9 0.0
09/02:30pm 30.1 29.5 13.4 36 10.1 NE 9 17 5 9 1018.2 1016.4 0.0
09/02:00pm 29.5 29.1 12.9 36 9.9 N 7 15 4 8 1018.7 1016.9 0.0
09/01:30pm 29.1 29.1 13.7 38 9.3 SW 6 13 3 7 1019.0 1017.2 0.0
09/01:00pm 27.9 28.0 13.8 42 8.5 NE 6 11 3 6 1019.4 1017.6 0.0
09/12:30pm 27.5 26.8 14.2 44 8.1 NE 11 17 6 9 1019.8 1018.1 0.0
09/12:00pm 26.3 25.3 13.4 45 7.7 SE 11 20 6 11 1020.3 1018.5 0.0
09/11:30am 26.2 25.2 14.6 48 7.1 E 13 22 7 12 1020.7 1018.9 0.0
09/11:00am 25.7 24.8 14.8 51 6.6 ENE 13 20 7 11 1020.9 1019.1 0.0
09/10:30am 24.3 23.5 14.1 53 6.1 ENE 11 17 6 9 1021.0 1019.2 0.0
09/10:00am 23.7 22.5 14.1 55 5.7 ENE 13 19 7 10 1021.2 1019.4 0.0
09/09:30am 22.8 21.2 13.8 57 5.3 E 15 20 8 11 1021.3 1019.5 0.0
09/09:00am 22.0 20.5 14.1 61 4.7 E 15 19 8 10 1021.2 1019.4 0.0
09/08:30am 21.3 21.3 14.2 64 4.2 E 7 13 4 7 1021.0 1019.2 0.0
09/08:00am 20.1 20.1 14.2 69 3.5 ESE 7 11 4 6 1020.8 1019.0 0.0
09/07:30am 18.8 18.7 13.9 73 2.9 SE 7 9 4 5 1020.6 1018.8 0.0
09/07:00am 17.8 17.6 13.7 77 2.4 SE 7 11 4 6 1020.4 1018.6 0.0
09/06:30am 17.8 17.6 13.7 77 2.4 SE 7 11 4 6 1019.9 1018.2 0.0
09/06:00am 18.0 17.9 13.9 77 2.4 SE 7 11 4 6 1019.5 1017.7 0.0
09/05:30am 17.7 17.1 13.6 77 2.4 SSE 9 11 5 6 1019.2 1017.4 0.0
09/05:00am 18.3 17.4 13.8 75 2.6 SE 11 15 6 8 1019.0 1017.2 0.0
09/04:30am 18.2 17.0 14.1 77 2.4 SE 13 20 7 11 1018.8 1017.0 0.0
09/04:00am 18.7 17.2 14.2 75 2.6 SE 15 20 8 11 1018.8 1017.0 0.0
09/03:30am 19.4 18.8 13.6 69 3.4 SE 9 15 5 8 1018.7 1016.9 0.0
09/03:00am 20.3 17.7 12.0 59 4.7 SE 17 22 9 12 1018.6 1016.8 0.0
09/02:30am 19.8 18.1 12.3 62 4.3 SSE 13 15 7 8 1018.6 1016.8 0.0
09/02:00am 19.9 18.6 11.4 58 4.8 SSE 9 13 5 7 1018.7 1016.9 0.0
09/01:30am 19.3 18.2 10.6 57 4.8 S 7 9 4 5 1018.7 1016.9 0.0
09/01:00am 20.2 18.5 10.0 52 5.6 S 9 11 5 6 1018.7 1016.9 0.0
09/12:30am 20.0 18.1 10.4 54 5.3 SSW 11 13 6 7 1018.5 1016.7 0.0
09/12:00am 20.9 19.2 11.3 54 5.4 S 11 17 6 9 1018.4 1016.6 0.0
 
Date/Time
EDT
Temp
°C
App
Temp
°C
Dew
Point
Rel
Hum
%
Delta-T
°C
Wind Press
QNH
hPa
Press
MSL
hPa
Rain
since 9 am
mm
Dir
 
Spd
km/h
Gust
km/h
Spd
kts
Gust
kts
08/11:30pm 20.9 19.4 10.4 51 5.8 SW 9 13 5 7 1018.2 1016.4 0.0
08/11:00pm 20.3 19.4 11.5 57 4.9 SSW 7 9 4 5 1018.2 1016.4 0.0
08/10:30pm 18.5 18.2 12.7 69 3.3 SSW 6 7 3 4 1018.1 1016.3 0.0
08/10:00pm 19.5 19.4 13.2 67 3.6 SW 6 7 3 4 1018.0 1016.2 0.0
08/09:30pm 21.1 20.6 12.8 59 4.8 SSW 7 9 4 5 1017.6 1015.8 0.0
08/09:00pm 21.6 21.8 13.2 59 4.9 WSW 4 7 2 4 1017.2 1015.5 0.0
08/08:30pm 24.9 25.4 11.5 43 7.7 CALM 0 0 0 0 1016.9 1015.1 0.0
08/08:00pm 26.9 25.9 11.0 37 9.1 S 7 9 4 5 1016.6 1014.8 0.0
08/07:30pm 29.2 27.6 11.7 34 10.3 S 11 15 6 8 1016.2 1014.4 0.0
08/07:00pm 30.9 28.4 9.7 27 12.2 S 13 20 7 11 1015.8 1014.0 0.0
08/06:30pm 31.7 28.2 8.7 24 13.0 S 17 20 9 11 1015.7 1013.9 0.0
08/06:00pm 31.9 28.6 8.2 23 13.3 SSE 15 24 8 13 1015.7 1013.9 0.0
08/05:30pm 32.3 28.8 7.2 21 13.9 S 15 20 8 11 1015.9 1014.1 0.0
08/05:00pm 32.2 27.9 7.1 21 13.9 SSE 19 26 10 14 1016.1 1014.3 0.0
08/04:30pm 32.1 27.6 6.3 20 14.1 SSE 19 30 10 16 1016.4 1014.6 0.0
08/04:00pm 32.1 28.9 7.0 21 13.9 S 13 22 7 12 1016.6 1014.8 0.0
08/03:30pm 31.9 27.7 8.2 23 13.4 SE 20 32 11 17 1017.0 1015.2 0.0
08/03:00pm 31.7 27.3 6.7 21 13.7 SSE 19 28 10 15 1017.2 1015.5 0.0
08/02:30pm 31.5 28.5 9.1 25 12.8 S 15 24 8 13 1017.7 1015.9 0.0
08/02:00pm 31.2 27.8 10.5 28 12.0 SSE 19 32 10 17 1018.0 1016.2 0.0
08/01:30pm 30.5 26.3 8.3 25 12.4 S 20 30 11 16 1018.3 1016.5 0.0
08/01:00pm 30.0 26.6 9.0 27 11.9 SSE 17 26 9 14 1018.5 1016.7 0.0
08/12:30pm 28.9 27.1 9.6 30 11.0 E 9 19 5 10 1018.9 1017.1 0.0
08/12:00pm 28.2 26.5 12.5 37 9.3 ESE 13 20 7 11 1019.3 1017.5 0.0
08/11:30am 27.6 25.6 12.8 40 8.8 E 15 20 8 11 1019.6 1017.9 0.0

Other Formats:

Comma delimited format used in spreadsheet applications
http://www.bom.gov.au/fwo/IDN60801/IDN60801.94712.axf

JavaScript Object Notation format (JSON) in row-major order
http://www.bom.gov.au/fwo/IDN60801/IDN60801.94712.json